sensor_id;sensor_type;location;lat;lon;timestamp;P1;durP1;ratioP1;P2;durP2;ratioP2
74912;SDS011;63878;55.624;37.304;2023-04-28T00:04:32;12.05;;;7.32;;
74912;SDS011;63878;55.624;37.304;2023-04-28T00:14:33;10.63;;;7.50;;
74912;SDS011;63878;55.624;37.304;2023-04-28T00:24:33;11.55;;;7.90;;
74912;SDS011;63878;55.624;37.304;2023-04-28T00:34:35;9.80;;;7.80;;
74912;SDS011;63878;55.624;37.304;2023-04-28T00:44:35;13.43;;;8.68;;
74912;SDS011;63878;55.624;37.304;2023-04-28T00:54:36;8.63;;;6.88;;
74912;SDS011;63878;55.624;37.304;2023-04-28T01:04:36;12.27;;;7.82;;
74912;SDS011;63878;55.624;37.304;2023-04-28T01:14:37;11.50;;;7.90;;
74912;SDS011;63878;55.624;37.304;2023-04-28T01:24:38;11.90;;;7.50;;
74912;SDS011;63878;55.624;37.304;2023-04-28T01:34:39;13.40;;;8.37;;
74912;SDS011;63878;55.624;37.304;2023-04-28T01:44:39;10.82;;;7.70;;
74912;SDS011;63878;55.624;37.304;2023-04-28T01:54:40;10.05;;;7.68;;
74912;SDS011;63878;55.624;37.304;2023-04-28T02:04:40;10.18;;;5.88;;
74912;SDS011;63878;55.624;37.304;2023-04-28T02:14:40;11.93;;;7.25;;
74912;SDS011;63878;55.624;37.304;2023-04-28T02:24:41;12.10;;;7.05;;
74912;SDS011;63878;55.624;37.304;2023-04-28T02:34:42;7.70;;;5.80;;
74912;SDS011;63878;55.624;37.304;2023-04-28T02:44:42;8.88;;;5.43;;
74912;SDS011;63878;55.624;37.304;2023-04-28T02:54:43;10.67;;;6.70;;
74912;SDS011;63878;55.624;37.304;2023-04-28T03:04:43;8.63;;;6.88;;
74912;SDS011;63878;55.624;37.304;2023-04-28T03:14:44;9.80;;;6.80;;
74912;SDS011;63878;55.624;37.304;2023-04-28T03:24:44;7.20;;;6.43;;
74912;SDS011;63878;55.624;37.304;2023-04-28T03:34:44;8.68;;;6.05;;
74912;SDS011;63878;55.624;37.304;2023-04-28T03:44:45;9.40;;;7.18;;
74912;SDS011;63878;55.624;37.304;2023-04-28T03:54:45;7.05;;;6.20;;
74912;SDS011;63878;55.624;37.304;2023-04-28T04:04:46;7.22;;;6.15;;
74912;SDS011;63878;55.624;37.304;2023-04-28T04:14:47;7.93;;;5.73;;
74912;SDS011;63878;55.624;37.304;2023-04-28T04:24:47;10.65;;;7.15;;
74912;SDS011;63878;55.624;37.304;2023-04-28T04:34:48;8.32;;;6.45;;
74912;SDS011;63878;55.624;37.304;2023-04-28T04:44:48;8.77;;;6.47;;
74912;SDS011;63878;55.624;37.304;2023-04-28T04:54:49;8.35;;;5.68;;
74912;SDS011;63878;55.624;37.304;2023-04-28T05:04:49;8.30;;;5.78;;
74912;SDS011;63878;55.624;37.304;2023-04-28T05:14:50;8.48;;;7.00;;
74912;SDS011;63878;55.624;37.304;2023-04-28T05:24:50;11.45;;;7.20;;
74912;SDS011;63878;55.624;37.304;2023-04-28T05:34:51;12.98;;;7.03;;
74912;SDS011;63878;55.624;37.304;2023-04-28T05:44:51;11.57;;;6.80;;
74912;SDS011;63878;55.624;37.304;2023-04-28T05:54:52;9.68;;;7.72;;
74912;SDS011;63878;55.624;37.304;2023-04-28T06:04:52;9.23;;;6.53;;
74912;SDS011;63878;55.624;37.304;2023-04-28T06:14:53;6.55;;;5.50;;
74912;SDS011;63878;55.624;37.304;2023-04-28T06:24:53;7.93;;;6.33;;
74912;SDS011;63878;55.624;37.304;2023-04-28T06:34:55;9.53;;;5.10;;
74912;SDS011;63878;55.624;37.304;2023-04-28T06:44:56;8.55;;;6.13;;
74912;SDS011;63878;55.624;37.304;2023-04-28T06:54:56;8.10;;;5.93;;
74912;SDS011;63878;55.624;37.304;2023-04-28T07:04:58;8.43;;;6.22;;
74912;SDS011;63878;55.624;37.304;2023-04-28T07:14:59;7.88;;;5.40;;
74912;SDS011;63878;55.624;37.304;2023-04-28T07:24:59;5.43;;;3.97;;
74912;SDS011;63878;55.624;37.304;2023-04-28T07:35:00;5.40;;;4.25;;
74912;SDS011;63878;55.624;37.304;2023-04-28T07:45:01;5.25;;;4.63;;
74912;SDS011;63878;55.624;37.304;2023-04-28T07:55:04;7.28;;;5.25;;
74912;SDS011;63878;55.624;37.304;2023-04-28T08:05:08;7.57;;;5.20;;
74912;SDS011;63878;55.624;37.304;2023-04-28T08:15:09;6.18;;;4.72;;
74912;SDS011;63878;55.624;37.304;2023-04-28T08:25:10;6.45;;;4.85;;
74912;SDS011;63878;55.624;37.304;2023-04-28T08:35:12;6.15;;;5.45;;
74912;SDS011;63878;55.624;37.304;2023-04-28T08:45:12;5.88;;;4.63;;
74912;SDS011;63878;55.624;37.304;2023-04-28T08:55:14;8.10;;;5.35;;
74912;SDS011;63878;55.624;37.304;2023-04-28T09:05:15;11.65;;;5.35;;
74912;SDS011;63878;55.624;37.304;2023-04-28T09:15:30;8.15;;;6.07;;
74912;SDS011;63878;55.624;37.304;2023-04-28T09:25:30;7.68;;;6.60;;
74912;SDS011;63878;55.624;37.304;2023-04-28T09:35:40;8.73;;;6.60;;
74912;SDS011;63878;55.624;37.304;2023-04-28T09:45:42;8.95;;;7.18;;
74912;SDS011;63878;55.624;37.304;2023-04-28T09:55:43;10.83;;;7.80;;
74912;SDS011;63878;55.624;37.304;2023-04-28T10:05:45;9.88;;;7.30;;
74912;SDS011;63878;55.624;37.304;2023-04-28T10:15:47;10.23;;;7.75;;
74912;SDS011;63878;55.624;37.304;2023-04-28T10:25:48;9.80;;;7.40;;
74912;SDS011;63878;55.624;37.304;2023-04-28T10:35:54;3.70;;;3.40;;
74912;SDS011;63878;55.624;37.304;2023-04-28T10:56:05;10.80;;;9.68;;
74912;SDS011;63878;55.624;37.304;2023-04-28T11:16:31;7.75;;;5.53;;
74912;SDS011;63878;55.624;37.304;2023-04-28T11:26:35;7.83;;;6.80;;
74912;SDS011;63878;55.624;37.304;2023-04-28T11:36:37;9.32;;;7.45;;
74912;SDS011;63878;55.624;37.304;2023-04-28T11:46:50;4.90;;;4.40;;
74912;SDS011;63878;55.624;37.304;2023-04-28T11:56:52;9.10;;;6.63;;
74912;SDS011;63878;55.624;37.304;2023-04-28T12:07:01;8.13;;;5.75;;
74912;SDS011;63878;55.624;37.304;2023-04-28T12:17:02;7.45;;;4.28;;
74912;SDS011;63878;55.624;37.304;2023-04-28T12:27:13;2.63;;;1.77;;
74912;SDS011;63878;55.624;37.304;2023-04-28T12:37:20;4.45;;;3.50;;
74912;SDS011;63878;55.624;37.304;2023-04-28T12:47:21;3.42;;;2.45;;
74912;SDS011;63878;55.624;37.304;2023-04-28T12:57:21;1.47;;;1.33;;
74912;SDS011;63878;55.624;37.304;2023-04-28T13:07:22;2.40;;;2.10;;
74912;SDS011;63878;55.624;37.304;2023-04-28T13:17:25;4.57;;;2.50;;
74912;SDS011;63878;55.624;37.304;2023-04-28T13:27:26;3.20;;;2.28;;
74912;SDS011;63878;55.624;37.304;2023-04-28T13:37:27;2.92;;;2.17;;
74912;SDS011;63878;55.624;37.304;2023-04-28T13:47:27;3.00;;;1.83;;
74912;SDS011;63878;55.624;37.304;2023-04-28T13:57:28;2.85;;;1.65;;
74912;SDS011;63878;55.624;37.304;2023-04-28T14:07:28;2.58;;;1.45;;
74912;SDS011;63878;55.624;37.304;2023-04-28T14:17:29;1.85;;;1.30;;
74912;SDS011;63878;55.624;37.304;2023-04-28T14:27:29;2.25;;;1.58;;
74912;SDS011;63878;55.624;37.304;2023-04-28T14:37:31;4.33;;;1.33;;
74912;SDS011;63878;55.624;37.304;2023-04-28T14:47:32;1.92;;;1.17;;
74912;SDS011;63878;55.624;37.304;2023-04-28T14:57:33;3.03;;;1.30;;
74912;SDS011;63878;55.624;37.304;2023-04-28T15:07:33;1.15;;;1.00;;
74912;SDS011;63878;55.624;37.304;2023-04-28T15:17:34;1.47;;;1.30;;
74912;SDS011;63878;55.624;37.304;2023-04-28T15:27:34;1.70;;;0.95;;
74912;SDS011;63878;55.624;37.304;2023-04-28T15:47:40;1.77;;;0.95;;
74912;SDS011;63878;55.624;37.304;2023-04-28T15:57:42;1.23;;;1.00;;
74912;SDS011;63878;55.624;37.304;2023-04-28T16:07:43;3.10;;;1.08;;
74912;SDS011;63878;55.624;37.304;2023-04-28T16:17:43;0.80;;;0.80;;
74912;SDS011;63878;55.624;37.304;2023-04-28T16:27:44;0.98;;;0.90;;
74912;SDS011;63878;55.624;37.304;2023-04-28T16:37:48;3.22;;;2.25;;
74912;SDS011;63878;55.624;37.304;2023-04-28T16:47:48;1.13;;;0.90;;
74912;SDS011;63878;55.624;37.304;2023-04-28T16:57:49;2.30;;;1.63;;
74912;SDS011;63878;55.624;37.304;2023-04-28T17:07:50;1.80;;;1.40;;
74912;SDS011;63878;55.624;37.304;2023-04-28T17:17:50;0.95;;;0.88;;
74912;SDS011;63878;55.624;37.304;2023-04-28T17:27:51;1.23;;;1.00;;
74912;SDS011;63878;55.624;37.304;2023-04-28T17:37:52;1.93;;;1.13;;
74912;SDS011;63878;55.624;37.304;2023-04-28T17:47:52;1.77;;;1.25;;
74912;SDS011;63878;55.624;37.304;2023-04-28T17:57:52;1.20;;;1.10;;
74912;SDS011;63878;55.624;37.304;2023-04-28T18:07:54;0.90;;;0.90;;
74912;SDS011;63878;55.624;37.304;2023-04-28T18:17:54;1.38;;;1.13;;
74912;SDS011;63878;55.624;37.304;2023-04-28T18:27:55;0.80;;;0.75;;
74912;SDS011;63878;55.624;37.304;2023-04-28T18:37:56;1.07;;;0.97;;
74912;SDS011;63878;55.624;37.304;2023-04-28T18:47:58;1.20;;;1.10;;
74912;SDS011;63878;55.624;37.304;2023-04-28T18:58:01;1.25;;;1.10;;
74912;SDS011;63878;55.624;37.304;2023-04-28T19:08:03;0.47;;;0.47;;
74912;SDS011;63878;55.624;37.304;2023-04-28T19:18:04;2.45;;;1.45;;
74912;SDS011;63878;55.624;37.304;2023-04-28T19:28:04;3.30;;;2.20;;
74912;SDS011;63878;55.624;37.304;2023-04-28T19:38:05;2.58;;;1.70;;
74912;SDS011;63878;55.624;37.304;2023-04-28T19:48:05;1.88;;;1.40;;
74912;SDS011;63878;55.624;37.304;2023-04-28T19:58:06;2.07;;;1.70;;
74912;SDS011;63878;55.624;37.304;2023-04-28T20:08:06;3.00;;;2.03;;
74912;SDS011;63878;55.624;37.304;2023-04-28T20:18:07;4.13;;;2.20;;
74912;SDS011;63878;55.624;37.304;2023-04-28T20:28:08;2.80;;;2.38;;
74912;SDS011;63878;55.624;37.304;2023-04-28T20:38:08;3.87;;;1.90;;
74912;SDS011;63878;55.624;37.304;2023-04-28T20:48:09;2.75;;;1.90;;
74912;SDS011;63878;55.624;37.304;2023-04-28T20:58:10;2.95;;;2.30;;
74912;SDS011;63878;55.624;37.304;2023-04-28T21:08:11;2.93;;;2.10;;
74912;SDS011;63878;55.624;37.304;2023-04-28T21:18:12;3.25;;;2.50;;
74912;SDS011;63878;55.624;37.304;2023-04-28T21:28:12;3.78;;;2.55;;
74912;SDS011;63878;55.624;37.304;2023-04-28T21:38:13;2.15;;;1.73;;
74912;SDS011;63878;55.624;37.304;2023-04-28T21:48:13;2.60;;;2.03;;
74912;SDS011;63878;55.624;37.304;2023-04-28T21:58:14;2.50;;;2.10;;
74912;SDS011;63878;55.624;37.304;2023-04-28T22:08:14;1.60;;;1.50;;
74912;SDS011;63878;55.624;37.304;2023-04-28T22:18:15;3.78;;;1.73;;
74912;SDS011;63878;55.624;37.304;2023-04-28T22:28:15;2.55;;;1.95;;
74912;SDS011;63878;55.624;37.304;2023-04-28T22:38:17;3.67;;;2.00;;
74912;SDS011;63878;55.624;37.304;2023-04-28T22:48:17;2.22;;;2.00;;
74912;SDS011;63878;55.624;37.304;2023-04-28T22:58:18;1.98;;;1.77;;
74912;SDS011;63878;55.624;37.304;2023-04-28T23:08:18;2.08;;;1.88;;
74912;SDS011;63878;55.624;37.304;2023-04-28T23:18:19;2.77;;;2.57;;
74912;SDS011;63878;55.624;37.304;2023-04-28T23:28:20;4.40;;;2.50;;
74912;SDS011;63878;55.624;37.304;2023-04-28T23:38:20;4.03;;;2.33;;
74912;SDS011;63878;55.624;37.304;2023-04-28T23:48:21;3.60;;;1.75;;
74912;SDS011;63878;55.624;37.304;2023-04-28T23:58:21;2.90;;;2.33;;
